Blakeslee, OH

12:27 PM EDT on September 05, 2015 (GMT -0400)
Edgerton | | Change Station
CLOSE
Current Station
Personal Weather Station
Location: Edgerton, OH
Elevation: 876 ft
Nearby Weather Stations

Elev 876 ft 41.45 °N, 84.69 °W | Updated 2 seconds ago

Overcast
Overcast
74.5 °F
Feels Like 76 °F
N
7.4
Wind Variable Wind from South
Gusts 9.8 mph

Today
High -- | Low -- °F
--% Chance of Precip.
Yesterday
High -- | Low -- °F
Precip. -- in
7:08 AM 8:05 PM
Waning Gibbous, 47% visible
Pressure 30.20 in
Visibility 4.0 miles
Clouds Few 400 ft
Scattered Clouds 1100 ft
Overcast 2300 ft
Heat Index 76 °F
Dew Point 65 °F
Humidity 72%
Rainfall 0.00 in
Snow Depth Not available.
UV 2.0 out of 12
Pollen 9.50 out of 12
Air Quality Not available.
Flu Activity Not available.
METAR KANQ 051615Z AUTO 18007KT 4SM FEW004 SCT011 OVC023 21/17 A3020 RMK
Pressure 30.20 in
Visibility 4.0 miles
Clouds Few 400 ft
Scattered Clouds 1100 ft
Overcast 2300 ft
Heat Index 76 °F
Dew Point 65 °F
Humidity 72%
Rainfall 0.00 in
Snow Depth Not available.
UV 2.0 out of 12
Pollen 9.50 out of 12
Air Quality Not available.
Flu Activity Not available.
METAR KANQ 051615Z AUTO 18007KT 4SM FEW004 SCT011 OVC023 21/17 A3020 RMK

10-Day Weather Forecast

×

Almanac

Astronomy

Sep. 05, 2015 Rise Set
Actual Time
Civil Twilight
Nautical Twilight
Astronomical Twilight
Moon
Length of Visible Light
Length of Day
Tomorrow will be .
, % of the Moon is Illuminated

Today's Extremes

State Highs State Lows

Community

WunderPhotos

Upload Photos

1,852,495 photos uploaded!

WunderBlogs® & News

Nearby

Air Quality

  Air Quality AQ Index Pollutant
Not available.

Snow Depth

Station Depth Elevation

Earthquake Activity

City Distance Mag. Time & Date
Minimum magnitude displayed is 2.5.

Coastal Water Temperatures

Place Temperature

Stations

Nearby Weather Stations

Station Location Temp. Windchill Dew Point Humidity Wind Precip. Elev Updated Type